Latest Weather Observations for Nuriootpa

IDS60901

Issued at 7:15 pm CDT Saturday 25 October 2014 (issued every 10 minutes, with the page automatically refreshed every 10 minutes)

About weather observations | Map of Adelaide area stations | Latest observations for Adelaide area | Other Formats
Station Details ID: 023373 Name: NURIOOTPA VITICULTURAL Lat: -34.48 Lon: 139.01 Height: 275.0 m
Data from the previous 72 hours. | See also: Recent months at Nuriootpa
Date/Time
CDT
Tmp

°C
App
Tmp
°C
Dew
Point
°C
Rel
Hum
%
Delta-T

°C
Wind Press
QNH
hPa
Press
MSL
hPa
Rain
since
9 am
mm
Dir
 
Spd
km/h
Gust
km/h
Spd
kts
Gust
kts
25/07:00pm 21.9 19.0 11.0 50 6.1 W 17 22 9 12 1015.9 1015.6 0.0
25/06:30pm 22.3 19.6 11.7 51 6.0 W 17 24 9 13 1015.4 1015.1 0.0
25/06:00pm 23.4 21.0 13.9 55 5.6 W 19 32 10 17 1015.6 1015.3 0.0
25/05:30pm 23.7 21.3 14.3 55 5.6 WSW 20 28 11 15 1015.4 1015.1 0.0
25/05:00pm 23.9 20.8 14.6 56 5.6 WSW 24 33 13 18 1015.3 1015.0 0.0
25/04:30pm 24.5 21.6 15.1 55 5.7 WSW 24 33 13 18 1015.3 1015.0 0.0
25/04:00pm 24.4 21.0 14.8 55 5.8 WSW 26 35 14 19 1015.4 1015.1 0.0
25/03:30pm 24.9 22.1 14.2 51 6.4 WSW 22 33 12 18 1015.7 1015.4 0.0
25/03:00pm 24.9 21.2 14.0 50 6.5 WSW 26 39 14 21 1015.7 1015.4 0.0
25/02:30pm 25.1 22.0 14.5 51 6.4 W 24 41 13 22 1015.7 1015.4 0.0
25/02:00pm 25.4 22.4 14.8 52 6.4 WSW 24 33 13 18 1015.6 1015.3 0.0
25/01:30pm 26.0 22.8 14.2 48 7.1 WSW 24 35 13 19 1015.6 1015.3 0.0
25/01:00pm 25.8 22.7 12.2 42 7.9 WSW 20 35 11 19 1015.8 1015.5 0.0
25/12:30pm 25.2 21.7 12.3 44 7.5 WSW 22 33 12 18 1015.9 1015.6 0.0
25/12:00pm 24.4 21.5 11.0 43 7.6 W 17 30 9 16 1016.3 1016.0 0.0
25/11:30am 23.2 20.9 11.6 48 6.6 W 15 26 8 14 1016.7 1016.4 0.0
25/11:00am 22.4 19.9 11.2 49 6.3 W 15 24 8 13 1017.0 1016.8 0.0
25/10:30am 21.7 18.9 11.4 52 5.8 W 17 22 9 12 1017.4 1017.2 0.0
25/10:00am 20.9 19.0 11.7 55 5.2 W 13 19 7 10 1017.5 1017.3 0.0
25/09:30am 20.4 18.9 10.4 52 5.5 W 9 15 5 8 1017.8 1017.6 0.0
25/09:00am 19.1 17.6 9.1 52 5.3 NNW 7 9 4 5 1017.7 1017.5 0.0
25/08:30am 17.9 16.5 9.0 56 4.7 N 6 9 3 5 1017.6 1017.4 0.0
25/08:00am 15.9 15.8 9.4 65 3.4 CALM 0 6 0 3 1017.6 1017.4 0.0
25/07:30am 14.5 13.4 9.9 74 2.4 NE 6 7 3 4 1017.2 1017.0 0.0
25/07:00am 12.7 12.2 9.2 79 1.8 NE 2 7 1 4 1016.8 1016.5 0.0
25/06:30am 12.3 10.8 9.0 80 1.7 NNE 7 11 4 6 1016.4 1016.1 0.0
25/06:00am 12.8 11.0 9.5 80 1.7 NNE 9 11 5 6 1016.0 1015.7 0.0
25/05:30am 13.2 10.7 9.7 79 1.8 NNE 13 15 7 8 1015.5 1015.2 0.0
25/05:00am 12.9 11.4 10.4 85 1.3 N 9 13 5 7 1015.1 1014.8 0.0
25/04:30am 12.7 11.3 10.8 88 1.0 NE 9 13 5 7 1014.8 1014.5 0.0
25/04:00am 12.7 11.9 11.2 91 0.8 W 6 11 3 6 1015.1 1014.8 0.0
25/03:30am 12.9 13.3 11.2 89 0.9 CALM 0 0 0 0 1014.7 1014.4 0.0
25/03:00am 13.8 13.0 11.6 86 1.2 E 7 9 4 5 1015.1 1014.8 0.0
25/02:30am 14.2 12.4 12.0 87 1.2 ESE 13 20 7 11 1015.1 1014.8 0.0
25/02:00am 14.6 13.1 12.0 84 1.4 E 11 17 6 9 1015.4 1015.1 0.0
25/01:30am 15.3 13.8 11.8 79 1.9 E 11 17 6 9 1015.4 1015.1 0.0
25/01:00am 15.9 15.2 11.9 77 2.2 NE 7 11 4 6 1015.7 1015.4 0.0
25/12:30am 16.6 15.4 11.5 72 2.8 ESE 9 17 5 9 1015.6 1015.3 0.0
25/12:00am 17.3 16.0 11.1 67 3.4 SE 9 15 5 8 1015.7 1015.4 0.0
 
Date/Time
CDT
Tmp

°C
App
Tmp
°C
Dew
Point
°C
Rel
Hum
%
Delta-T

°C
Wind Press
QNH
hPa
Press
MSL
hPa
Rain
since
9 am
mm
Dir
 
Spd
km/h
Gust
km/h
Spd
kts
Gust
kts
24/11:30pm 17.5 15.9 11.7 69 3.2 ESE 11 19 6 10 1015.8 1015.5 0.0
24/11:00pm 18.3 16.8 11.8 66 3.6 ESE 11 19 6 10 1015.7 1015.4 0.0
24/10:30pm 19.9 18.4 10.6 55 5.1 ENE 9 13 5 7 1015.6 1015.3 0.0
24/10:00pm 20.3 18.6 10.0 51 5.6 E 9 11 5 6 1015.2 1014.9 0.0
24/09:30pm 20.9 19.6 9.9 49 6.0 ESE 7 13 4 7 1015.1 1014.8 0.0
24/09:00pm 22.1 20.9 10.4 47 6.5 ESE 7 13 4 7 1014.7 1014.4 0.0
24/08:30pm 23.2 21.7 10.5 44 7.1 ESE 9 13 5 7 1014.1 1013.9 0.0
24/08:00pm 24.9 24.1 11.0 41 7.9 SSW 6 9 3 5 1013.9 1013.7 0.0
24/07:30pm 27.3 26.9 16.2 50 6.9 SW 13 19 7 10 1013.6 1013.3 0.0
24/07:00pm 29.0 28.0 17.6 50 7.3 WSW 19 26 10 14 1013.3 1013.0 0.0
24/06:30pm 31.0 30.0 17.5 44 8.7 SW 19 32 10 17 1012.6 1012.3 0.0
24/06:00pm 32.8 34.3 18.8 43 9.2 SW 9 19 5 10 1012.3 1012.0 0.0
24/05:30pm 32.9 34.2 19.2 44 9.1 WSW 11 13 6 7 1012.5 1012.2 0.0
24/05:00pm 33.0 34.3 19.3 44 9.1 WSW 11 17 6 9 1012.5 1012.2 0.0
24/04:30pm 32.7 34.2 19.8 46 8.6 WSW 11 22 6 12 1012.7 1012.4 0.0
24/04:00pm 32.4 32.9 19.3 46 8.7 W 15 26 8 14 1013.1 1012.8 0.0
24/03:30pm 32.5 32.3 18.5 43 9.2 W 17 24 9 13 1013.4 1013.1 0.0
24/03:00pm 32.2 31.8 18.1 43 9.2 WSW 17 28 9 15 1013.6 1013.3 0.0
24/02:30pm 31.5 30.8 17.3 42 9.1 WSW 17 26 9 14 1014.0 1013.8 0.0
24/02:00pm 31.1 29.7 16.6 41 9.2 W 19 22 10 12 1014.4 1014.1 0.0
24/01:30pm 30.7 29.1 15.9 40 9.3 W 19 28 10 15 1014.6 1014.3 0.0
24/01:00pm 29.8 28.5 14.7 39 9.3 WSW 15 22 8 12 1014.7 1014.4 0.0
24/12:30pm 29.1 26.2 13.0 37 9.6 SW 20 32 11 17 1014.9 1014.6 0.0
24/12:00pm 29.1 25.9 11.9 34 10.1 SW 20 32 11 17 1015.4 1015.1 0.0
24/11:30am 28.5 24.0 8.4 28 11.1 W 22 30 12 16 1015.8 1015.5 0.0
24/11:00am 27.8 24.3 8.6 30 10.6 WNW 17 22 9 12 1015.9 1015.6 0.0
24/10:30am 25.8 22.6 7.0 30 10.0 WSW 13 22 7 12 1016.0 1015.7 0.0
24/10:00am 25.3 22.4 6.5 30 9.9 W 11 15 6 8 1015.8 1015.5 0.0
24/09:30am 24.0 21.5 6.6 32 9.1 WSW 9 13 5 7 1015.8 1015.5 0.0
24/09:00am 22.0 21.5 8.0 40 7.4 CALM 0 7 0 4 1015.8 1015.5 0.0
24/08:30am 19.3 19.1 9.2 52 5.4 CALM 0 0 0 0 1015.4 1015.1 0.0
24/08:00am 16.5 16.5 9.9 65 3.5 CALM 0 0 0 0 1015.2 1014.9 0.0
24/07:30am 12.5 12.4 9.6 82 1.5 CALM 0 0 0 0 1015.1 1014.8 0.0
24/07:00am 10.4 9.7 8.6 89 0.9 E 2 7 1 4 1014.5 1014.2 0.0
24/06:30am 10.2 9.9 8.8 91 0.7 CALM 0 0 0 0 1014.4 1014.1 0.0
24/06:00am 10.4 9.0 9.0 91 0.7 E 6 7 3 4 1013.9 1013.7 0.0
24/05:30am 10.1 8.8 9.1 93 0.5 NNE 6 7 3 4 1013.8 1013.6 0.0
24/05:00am 9.1 8.7 8.1 93 0.5 CALM 0 0 0 0 1013.8 1013.6 0.0
24/04:30am 9.8 8.7 8.6 92 0.6 NE 4 9 2 5 1013.6 1013.3 0.0
24/04:00am 9.6 9.0 8.8 95 0.4 NE 2 6 1 3 1013.3 1013.0 0.0
24/03:30am 9.1 8.3 8.3 95 0.4 NNE 2 7 1 4 1013.6 1013.3 0.0
24/03:00am 9.2 7.6 8.2 93 0.5 ENE 6 9 3 5 1013.7 1013.5 0.0
24/02:30am 8.9 7.3 7.9 93 0.5 NE 6 9 3 5 1014.5 1014.2 0.0
24/02:00am 9.2 8.7 8.0 92 0.6 CALM 0 0 0 0 1015.0 1014.7 0.0
24/01:30am 10.0 8.4 8.6 91 0.7 ENE 7 9 4 5 1015.1 1014.8 0.0
24/01:00am 10.3 8.9 8.7 90 0.8 SE 6 7 3 4 1015.7 1015.4 0.0
24/12:30am 11.0 10.9 9.4 90 0.8 CALM 0 0 0 0 1016.2 1015.9 0.0
24/12:00am 11.5 11.5 9.9 90 0.8 CALM 0 0 0 0 1016.1 1015.8 0.0
 
Date/Time
CDT
Tmp

°C
App
Tmp
°C
Dew
Point
°C
Rel
Hum
%
Delta-T

°C
Wind Press
QNH
hPa
Press
MSL
hPa
Rain
since
9 am
mm
Dir
 
Spd
km/h
Gust
km/h
Spd
kts
Gust
kts
23/11:30pm 11.7 11.4 10.0 89 0.9 ENE 2 6 1 3 1016.3 1016.0 0.0
23/11:00pm 12.1 11.7 9.6 85 1.3 NE 2 6 1 3 1016.3 1016.0 0.0
23/10:30pm 13.5 13.7 10.7 83 1.5 CALM 0 0 0 0 1016.4 1016.1 0.0
23/10:00pm 14.2 14.4 10.6 79 1.9 CALM 0 0 0 0 1016.3 1016.0 0.0
23/09:30pm 15.7 15.2 12.1 79 2.0 WSW 6 7 3 4 1016.3 1016.0 0.0
23/09:00pm 16.6 16.8 11.7 73 2.7 SW 2 9 1 5 1016.0 1015.7 0.0
23/08:30pm 18.1 16.5 11.6 66 3.6 W 11 17 6 9 1016.0 1015.7 0.0
23/08:00pm 19.4 17.7 11.1 58 4.6 WSW 11 15 6 8 1015.9 1015.6 0.0
23/07:30pm 20.2 18.3 10.6 54 5.3 SW 11 13 6 7 1015.5 1015.2 0.0
23/07:00pm 21.3 19.6 11.3 53 5.6 WSW 11 15 6 8 1015.2 1014.9 0.0
23/06:30pm 21.6 19.3 11.7 53 5.6 SSW 15 19 8 10 1014.9 1014.6 0.0
23/06:00pm 22.6 19.4 11.2 48 6.4 SW 19 28 10 15 1014.8 1014.5 0.0
23/05:30pm 25.0 21.6 10.4 39 8.2 W 19 26 10 14 1014.4 1014.1 0.0
23/05:00pm 26.3 22.7 10.4 36 9.0 W 20 28 11 15 1014.1 1013.9 0.0
23/04:30pm 27.2 23.7 10.3 34 9.6 WSW 19 24 10 13 1014.0 1013.8 0.0
23/04:00pm 27.3 24.3 9.4 32 10.0 SW 15 24 8 13 1014.0 1013.8 0.0
23/03:30pm 27.2 25.1 8.2 30 10.4 W 9 20 5 11 1014.1 1013.9 0.0
23/03:00pm 27.5 25.3 7.9 29 10.7 SSW 9 19 5 10 1014.4 1014.1 0.0
23/02:30pm 27.0 24.4 7.6 29 10.5 WNW 11 17 6 9 1014.7 1014.4 0.0
23/02:00pm 26.7 24.6 8.2 31 10.1 WNW 9 15 5 8 1015.2 1014.9 0.0
23/01:30pm 25.6 23.2 8.6 34 9.3 W 11 20 6 11 1015.6 1015.3 0.0
23/01:00pm 25.2 23.2 8.5 34 9.1 WNW 9 15 5 8 1015.9 1015.6 0.0
23/12:30pm 24.9 23.1 9.3 37 8.6 SSW 9 13 5 7 1016.2 1015.9 0.0
23/12:00pm 23.6 22.5 9.8 41 7.6 W 6 11 3 6 1016.8 1016.5 0.0
23/11:30am 22.3 21.1 10.4 47 6.6 E 7 11 4 6 1017.0 1016.8 0.0
23/11:00am 21.0 19.8 10.2 50 5.9 E 7 13 4 7 1017.3 1017.1 0.0
23/10:30am 19.5 18.1 10.8 57 4.8 SE 9 13 5 7 1017.7 1017.5 0.0
23/10:00am 18.2 16.7 10.5 60 4.2 SE 9 13 5 7 1017.7 1017.5 0.0
23/09:30am 17.2 16.4 11.2 68 3.3 SE 6 9 3 5 1018.1 1017.8 0.0
23/09:00am 15.2 13.7 10.7 74 2.4 E 9 15 5 8 1018.3 1018.0 0.0
23/08:30am 14.3 13.0 11.1 81 1.7 ESE 9 13 5 7 1018.6 1018.3 0.0
23/08:00am 13.2 11.8 10.9 86 1.2 E 9 15 5 8 1018.7 1018.4 0.0
23/07:30am 11.9 12.4 11.7 99 0.1 CALM 0 0 0 0 1018.4 1018.1 0.0
23/07:00am 10.1 10.2 10.1 100 0.0 CALM 0 0 0 0 1018.1 1017.8 0.0
23/06:30am 9.9 8.7 9.7 99 0.1 N 6 7 3 4 1018.3 1018.0 0.0
23/06:00am 10.3 9.3 10.3 100 0.0 NNE 6 9 3 5 1018.1 1017.8 0.0
23/05:30am 10.5 9.9 10.3 99 0.1 ESE 4 9 2 5 1017.5 1017.3 0.0
23/05:00am 10.7 10.5 10.5 99 0.1 WSW 2 7 1 4 1017.6 1017.4 0.0
23/04:30am 11.0 9.9 10.8 99 0.1 SW 7 9 4 5 1017.6 1017.4 0.0
23/04:00am 11.1 10.0 10.7 97 0.2 W 7 7 4 4 1017.4 1017.2 0.0
23/03:30am 11.8 11.0 11.2 96 0.3 S 6 7 3 4 1017.3 1017.1 0.0
23/03:00am 12.4 11.3 11.8 96 0.3 SW 9 15 5 8 1018.1 1017.8 0.0
23/02:30am 12.6 11.2 12.2 97 0.2 WSW 11 17 6 9 1018.2 1017.9 0.0
23/02:00am 12.6 11.6 12.4 99 0.1 W 9 11 5 6 1018.6 1018.3 0.0
23/01:30am 11.2 10.9 10.2 94 0.5 SW 2 7 1 4 1018.7 1018.4 0.0
23/01:00am 11.9 10.8 10.8 93 0.6 WSW 7 11 4 6 1018.9 1018.6 0.0
23/12:30am 12.7 11.5 10.2 85 1.3 SSW 7 11 4 6 1019.3 1019.0 0.0
23/12:00am 12.7 11.1 10.2 85 1.3 SW 9 17 5 9 1019.4 1019.1 0.0
 
Date/Time
CDT
Tmp

°C
App
Tmp
°C
Dew
Point
°C
Rel
Hum
%
Delta-T

°C
Wind Press
QNH
hPa
Press
MSL
hPa
Rain
since
9 am
mm
Dir
 
Spd
km/h
Gust
km/h
Spd
kts
Gust
kts
22/11:30pm 12.1 12.4 10.8 92 0.7 CALM 0 0 0 0 1019.5 1019.2 0.0
22/11:00pm 13.3 13.8 11.6 89 0.9 CALM 0 0 0 0 1019.7 1019.4 0.0
22/10:30pm 13.9 14.5 11.9 88 1.1 CALM 0 0 0 0 1019.8 1019.5 0.0
22/10:00pm 14.9 14.6 12.6 86 1.3 W 6 9 3 5 1019.7 1019.4 0.0
22/09:30pm 15.7 15.2 12.8 83 1.6 SW 7 9 4 5 1019.6 1019.3 0.0
22/09:00pm 16.6 15.8 12.9 79 2.1 W 9 11 5 6 1019.6 1019.3 0.0
22/08:30pm 17.8 17.1 13.2 74 2.6 W 9 13 5 7 1019.0 1018.7 0.0
22/08:00pm 18.8 17.9 12.6 67 3.5 W 9 11 5 6 1018.5 1018.2 0.0
22/07:30pm 20.6 19.0 12.9 61 4.4 W 13 19 7 10 1017.9 1017.7 0.0

Latest Capital City Observations: Canberra | Sydney | Melbourne | Brisbane | Adelaide | Perth | Hobart | Darwin

Other Formats:

Comma delimited format used in spreadsheet applications
http://www.bom.gov.au/fwo/IDS60901/IDS60901.94681.axf

JavaScript Object Notation format (JSON) in row-major order
http://www.bom.gov.au/fwo/IDS60901/IDS60901.94681.json